createdAt,value
2022-12-24T00:01:43.419Z,14.93
2022-12-24T00:04:10.008Z,12.70
2022-12-24T00:06:36.642Z,15.07
2022-12-24T00:09:03.575Z,15.27
2022-12-24T00:11:30.452Z,11.23
2022-12-24T00:13:57.287Z,13.97
2022-12-24T00:16:24.247Z,14.47
2022-12-24T00:18:50.943Z,15.10
2022-12-24T00:21:17.861Z,14.87
2022-12-24T00:23:44.682Z,14.67
2022-12-24T00:26:11.650Z,13.13
2022-12-24T00:28:38.270Z,17.03
2022-12-24T00:31:09.115Z,14.30
2022-12-24T00:33:35.874Z,14.63
2022-12-24T00:36:05.322Z,14.60
2022-12-24T00:38:32.090Z,12.90
2022-12-24T00:41:00.253Z,12.00
2022-12-24T00:43:27.939Z,14.27
2022-12-24T00:45:54.637Z,16.63
2022-12-24T00:48:22.925Z,12.80
2022-12-24T00:50:50.180Z,18.10
2022-12-24T00:53:17.439Z,12.83
2022-12-24T00:55:44.085Z,16.23
2022-12-24T00:58:11.003Z,18.23
2022-12-24T01:00:37.690Z,20.67
2022-12-24T01:03:04.525Z,17.97
2022-12-24T01:05:31.178Z,15.80
2022-12-24T01:07:57.985Z,15.33
2022-12-24T01:10:24.652Z,16.00
2022-12-24T01:12:51.561Z,16.40
2022-12-24T01:15:18.470Z,17.30
2022-12-24T01:17:45.184Z,15.80
2022-12-24T01:20:13.425Z,20.93
2022-12-24T01:22:40.160Z,17.83
2022-12-24T01:25:06.956Z,18.20
2022-12-24T01:27:33.676Z,15.93
2022-12-24T01:30:00.249Z,18.23
2022-12-24T01:32:26.982Z,16.07
2022-12-24T01:34:53.578Z,19.63
2022-12-24T01:37:20.233Z,17.57
2022-12-24T01:39:46.866Z,22.10
2022-12-24T01:42:36.256Z,20.57
2022-12-24T01:45:21.762Z,22.23
2022-12-24T01:47:48.657Z,19.87
2022-12-24T01:50:15.972Z,20.87
2022-12-24T01:52:42.708Z,19.60
2022-12-24T01:55:18.088Z,20.30
2022-12-24T01:57:55.072Z,18.60
2022-12-24T02:00:21.844Z,20.03
2022-12-24T02:02:48.890Z,19.37
2022-12-24T02:05:17.293Z,16.40
2022-12-24T02:07:44.003Z,19.83
2022-12-24T02:10:11.172Z,24.13
2022-12-24T02:12:37.943Z,19.77
2022-12-24T02:15:05.562Z,21.70
2022-12-24T02:17:32.185Z,16.27
2022-12-24T02:19:58.802Z,17.93
2022-12-24T02:22:28.515Z,19.10
2022-12-24T02:25:13.803Z,18.07
2022-12-24T02:28:06.637Z,17.83
2022-12-24T02:30:39.007Z,15.87
2022-12-24T02:33:17.999Z,17.43
2022-12-24T02:35:53.808Z,16.47
2022-12-24T02:41:26.081Z,17.33
2022-12-24T02:43:53.520Z,14.37
2022-12-24T02:46:24.782Z,15.73
2022-12-24T02:48:51.450Z,16.07
2022-12-24T02:51:21.842Z,14.77
2022-12-24T02:53:48.511Z,14.13
2022-12-24T02:56:21.059Z,13.53
2022-12-24T02:58:53.531Z,15.63
2022-12-24T03:01:20.442Z,13.27
2022-12-24T03:04:00.228Z,16.53
2022-12-24T03:06:27.493Z,12.23
2022-12-24T03:08:55.271Z,16.20
2022-12-24T03:11:22.116Z,14.37
2022-12-24T03:13:48.812Z,17.03
2022-12-24T03:16:16.352Z,14.80
2022-12-24T03:18:44.077Z,16.17
2022-12-24T03:21:11.723Z,13.57
2022-12-24T03:23:38.299Z,18.70
2022-12-24T03:26:06.337Z,32.67
2022-12-24T03:28:33.030Z,21.13
2022-12-24T03:31:01.328Z,20.83
2022-12-24T03:33:27.948Z,14.90
2022-12-24T03:35:54.695Z,18.07
2022-12-24T03:38:21.445Z,14.40
2022-12-24T03:40:48.277Z,16.67
2022-12-24T03:43:14.883Z,12.10
2022-12-24T03:45:41.592Z,10.23
2022-12-24T03:50:52.432Z,11.53
2022-12-24T03:56:03.623Z,10.80
2022-12-24T04:01:14.614Z,6.57
2022-12-24T04:03:41.326Z,8.00
2022-12-24T04:06:08.867Z,6.07
2022-12-24T04:08:35.660Z,9.73
2022-12-24T04:11:09.508Z,16.90
2022-12-24T04:13:36.647Z,14.20
2022-12-24T04:16:07.604Z,12.60
2022-12-24T04:18:34.322Z,10.63
2022-12-24T04:21:00.886Z,10.40
2022-12-24T04:26:12.013Z,10.63
2022-12-24T04:28:38.624Z,12.33
2022-12-24T04:31:06.610Z,12.43
2022-12-24T04:33:33.272Z,11.27
2022-12-24T04:36:02.368Z,12.63
2022-12-24T04:38:29.326Z,14.17
2022-12-24T04:41:00.373Z,20.57
2022-12-24T04:43:28.174Z,15.23
2022-12-24T04:45:55.029Z,12.47
2022-12-24T04:48:22.191Z,14.10
2022-12-24T04:50:48.889Z,15.53
2022-12-24T04:53:17.878Z,12.67
2022-12-24T04:55:47.266Z,11.97
2022-12-24T04:58:14.064Z,9.40
2022-12-24T05:00:40.800Z,11.67
2022-12-24T05:03:07.496Z,9.43
2022-12-24T05:05:34.082Z,8.50
2022-12-24T05:08:00.766Z,12.00
2022-12-24T05:10:27.345Z,10.53
2022-12-24T05:12:54.142Z,12.43
2022-12-24T05:15:20.701Z,12.50
2022-12-24T05:17:47.370Z,39.23
2022-12-24T05:20:13.966Z,43.30
2022-12-24T05:22:59.149Z,28.37
2022-12-24T05:25:45.254Z,13.17
2022-12-24T05:28:11.935Z,12.77
2022-12-24T05:30:38.635Z,11.20
2022-12-24T05:33:05.348Z,10.27
2022-12-24T05:35:32.107Z,11.63
2022-12-24T05:37:59.024Z,10.17
2022-12-24T05:40:25.958Z,13.33
2022-12-24T05:42:52.695Z,11.93
2022-12-24T05:45:19.276Z,13.17
2022-12-24T05:47:45.980Z,11.57
2022-12-24T05:50:12.937Z,12.10
2022-12-24T05:52:41.295Z,9.70
2022-12-24T05:55:09.174Z,12.03
2022-12-24T05:57:35.878Z,11.83
2022-12-24T06:00:02.560Z,12.10
2022-12-24T06:02:38.915Z,10.43
2022-12-24T06:05:06.020Z,9.23
2022-12-24T06:07:32.626Z,10.47
2022-12-24T06:09:59.537Z,10.00
2022-12-24T06:12:26.160Z,12.30
2022-12-24T06:14:52.831Z,10.40
2022-12-24T06:17:19.497Z,11.70
2022-12-24T06:19:46.234Z,20.03
2022-12-24T06:22:12.878Z,18.13
2022-12-24T06:24:39.620Z,19.27
2022-12-24T06:27:06.545Z,16.33
2022-12-24T06:29:33.237Z,18.87
2022-12-24T06:31:59.916Z,23.87
2022-12-24T06:34:26.737Z,20.77
2022-12-24T06:36:53.391Z,22.73
2022-12-24T06:39:20.063Z,18.87
2022-12-24T06:41:46.673Z,24.10
2022-12-24T06:44:13.259Z,18.90
2022-12-24T06:46:40.063Z,21.90
2022-12-24T06:49:06.905Z,19.40
2022-12-24T06:51:33.676Z,19.37
2022-12-24T06:56:44.922Z,18.03
2022-12-24T06:59:11.586Z,15.17
2022-12-24T07:01:38.496Z,17.50
2022-12-24T07:04:05.201Z,16.70
2022-12-24T07:06:31.888Z,20.57
2022-12-24T07:08:58.473Z,18.03
2022-12-24T07:11:25.179Z,19.63
2022-12-24T07:13:51.828Z,19.90
2022-12-24T07:16:18.713Z,19.00
2022-12-24T07:18:45.412Z,19.93
2022-12-24T07:21:12.232Z,18.93
2022-12-24T07:23:38.986Z,108.20
2022-12-24T07:26:05.912Z,36.50
2022-12-24T07:28:32.781Z,28.83
2022-12-24T07:31:00.327Z,34.27
2022-12-24T07:33:27.205Z,22.87
2022-12-24T07:36:00.327Z,27.83
2022-12-24T07:38:27.869Z,26.80
2022-12-24T07:40:54.585Z,33.47
2022-12-24T07:43:24.414Z,28.50
2022-12-24T07:45:51.365Z,25.77
2022-12-24T07:48:18.054Z,28.13
2022-12-24T07:50:44.841Z,24.63
2022-12-24T07:53:11.537Z,26.17
2022-12-24T07:55:38.214Z,22.80
2022-12-24T07:58:04.938Z,27.53
2022-12-24T08:00:32.126Z,36.90
2022-12-24T08:03:00.414Z,37.57
2022-12-24T08:05:27.938Z,28.53
2022-12-24T08:07:54.717Z,31.93
2022-12-24T08:10:21.408Z,29.87
2022-12-24T08:12:48.539Z,29.53
2022-12-24T08:15:15.402Z,31.77
2022-12-24T08:17:42.073Z,30.23
2022-12-24T08:20:09.278Z,31.53
2022-12-24T08:22:36.936Z,28.10
2022-12-24T08:25:03.897Z,20.07
2022-12-24T08:27:30.571Z,24.37
2022-12-24T08:29:57.399Z,28.37
2022-12-24T08:32:26.431Z,27.97
2022-12-24T08:34:53.398Z,28.37
2022-12-24T08:37:20.548Z,22.07
2022-12-24T08:39:47.875Z,16.73
2022-12-24T08:42:14.785Z,20.77
2022-12-24T08:44:41.752Z,18.40
2022-12-24T08:47:08.427Z,17.70
2022-12-24T08:49:35.209Z,22.40
2022-12-24T08:52:01.804Z,20.40
2022-12-24T08:54:28.903Z,27.73
2022-12-24T08:56:55.605Z,27.13
2022-12-24T08:59:22.380Z,25.97
2022-12-24T09:01:49.332Z,24.90
2022-12-24T09:04:16.280Z,23.27
2022-12-24T09:06:43.186Z,33.03
2022-12-24T09:09:09.891Z,34.60
2022-12-24T09:11:37.051Z,31.33
2022-12-24T09:14:03.877Z,29.13
2022-12-24T09:16:30.693Z,129.97
2022-12-24T09:18:57.836Z,23.53
2022-12-24T09:21:26.978Z,20.53
2022-12-24T09:23:54.303Z,23.33
2022-12-24T09:26:22.327Z,15.77
2022-12-24T09:28:49.084Z,20.87
2022-12-24T09:31:15.972Z,13.57
2022-12-24T09:33:43.642Z,12.60
2022-12-24T09:36:10.542Z,12.23
2022-12-24T09:38:37.652Z,12.23
2022-12-24T09:41:27.240Z,14.20
2022-12-24T09:44:01.424Z,12.87
2022-12-24T09:46:32.277Z,10.73
2022-12-24T09:49:01.978Z,11.97
2022-12-24T09:51:38.750Z,12.70
2022-12-24T09:54:05.949Z,9.07
2022-12-24T09:56:40.188Z,7.50
2022-12-24T09:59:10.263Z,6.43
2022-12-24T10:01:38.607Z,7.77
2022-12-24T10:04:11.210Z,5.83
2022-12-24T10:06:50.196Z,2.87
2022-12-24T10:09:29.857Z,4.63
2022-12-24T10:11:59.237Z,2.60
2022-12-24T10:14:44.701Z,2.23
2022-12-24T10:17:23.470Z,2.10
2022-12-24T10:20:08.904Z,2.50
2022-12-24T10:22:37.726Z,2.20
2022-12-24T10:25:07.643Z,2.00
2022-12-24T10:27:36.571Z,2.43
2022-12-24T10:30:10.405Z,1.20
2022-12-24T10:32:40.907Z,1.30
2022-12-24T10:35:16.804Z,1.83
2022-12-24T10:37:44.235Z,2.93
2022-12-24T10:40:15.961Z,1.53
2022-12-24T10:42:50.999Z,2.07
2022-12-24T10:45:19.239Z,3.80
2022-12-24T10:47:46.542Z,1.77
2022-12-24T10:50:14.549Z,2.70
2022-12-24T10:52:42.628Z,1.93
2022-12-24T10:55:29.999Z,1.90
2022-12-24T10:58:05.644Z,1.50
2022-12-24T11:00:36.185Z,2.00
2022-12-24T11:03:12.933Z,3.30
2022-12-24T11:05:41.176Z,1.73
2022-12-24T11:08:14.904Z,1.67
2022-12-24T11:10:45.978Z,2.30
2022-12-24T11:13:37.419Z,2.97
2022-12-24T11:16:09.418Z,1.83
2022-12-24T11:18:37.741Z,1.63
2022-12-24T11:21:05.061Z,1.77
2022-12-24T11:23:32.616Z,3.00
2022-12-24T11:25:59.433Z,2.57
2022-12-24T11:28:29.682Z,2.33
2022-12-24T11:30:56.713Z,4.90
2022-12-24T11:33:23.678Z,5.30
2022-12-24T11:35:52.076Z,5.23
2022-12-24T11:38:23.200Z,1.57
2022-12-24T11:40:51.010Z,1.87
2022-12-24T11:43:19.238Z,2.67
2022-12-24T11:48:37.720Z,5.30
2022-12-24T11:51:05.825Z,4.73
2022-12-24T11:53:38.692Z,6.37
2022-12-24T11:56:07.323Z,44.73
2022-12-24T11:58:48.886Z,35.20
2022-12-24T12:01:16.282Z,7.70
2022-12-24T12:03:49.954Z,17.63
2022-12-24T12:06:21.728Z,3.57
2022-12-24T12:08:48.975Z,4.37
2022-12-24T12:11:15.688Z,13.23
2022-12-24T12:13:43.854Z,5.60
2022-12-24T12:16:22.163Z,3.13
2022-12-24T12:18:54.047Z,5.40
2022-12-24T12:21:21.335Z,49.73
2022-12-24T12:23:49.782Z,54.87
2022-12-24T12:26:22.260Z,22.97
2022-12-24T12:28:54.941Z,16.43
2022-12-24T12:31:41.291Z,16.93
2022-12-24T12:34:16.600Z,4.60
2022-12-24T12:36:46.528Z,3.73
2022-12-24T12:39:13.499Z,10.87
2022-12-24T12:41:45.264Z,5.73
2022-12-24T12:44:35.471Z,6.13
2022-12-24T12:47:03.436Z,7.13
2022-12-24T12:49:48.906Z,4.03
2022-12-24T12:52:19.059Z,2.47
2022-12-24T12:54:48.837Z,2.63
2022-12-24T12:57:16.907Z,2.30
2022-12-24T12:59:45.726Z,1.70
2022-12-24T13:02:33.957Z,2.37
2022-12-24T13:05:19.148Z,4.00
2022-12-24T13:10:59.356Z,3.60
2022-12-24T13:13:32.057Z,2.30
2022-12-24T13:16:18.198Z,2.73
2022-12-24T13:18:47.807Z,2.70
2022-12-24T13:21:18.604Z,3.03
2022-12-24T13:23:45.862Z,7.27
2022-12-24T13:26:13.175Z,18.00
2022-12-24T13:28:40.642Z,29.03
2022-12-24T13:31:26.605Z,23.67
2022-12-24T13:34:00.438Z,15.53
2022-12-24T13:36:47.410Z,17.13
2022-12-24T13:39:19.287Z,8.33
2022-12-24T13:45:40.098Z,8.63
2022-12-24T13:48:07.801Z,6.77
2022-12-24T13:50:37.931Z,9.80
2022-12-24T13:53:05.315Z,30.27
2022-12-24T13:55:32.912Z,8.73
2022-12-24T13:58:00.192Z,35.10
2022-12-24T14:00:54.256Z,39.03
2022-12-24T14:03:24.466Z,32.60
2022-12-24T14:05:53.062Z,16.30
2022-12-24T14:08:24.297Z,14.30
2022-12-24T14:11:10.351Z,6.17
2022-12-24T14:13:40.627Z,6.83
2022-12-24T14:16:27.705Z,9.60
2022-12-24T14:22:05.246Z,44.47
2022-12-24T14:24:33.682Z,15.40
2022-12-24T14:27:06.171Z,25.93
2022-12-24T14:32:20.038Z,18.07
2022-12-24T14:34:46.971Z,13.33
2022-12-24T14:37:14.384Z,18.50
2022-12-24T14:39:45.193Z,15.80
2022-12-24T14:45:33.591Z,17.43
2022-12-24T14:48:16.242Z,22.30
2022-12-24T14:50:49.265Z,19.40
2022-12-24T14:56:17.347Z,17.13
2022-12-24T14:58:45.391Z,15.20
2022-12-24T15:01:21.980Z,16.70
2022-12-24T15:04:07.584Z,32.57
2022-12-24T15:06:34.930Z,21.90
2022-12-24T15:09:01.703Z,22.77
2022-12-24T15:11:28.560Z,26.43
2022-12-24T15:13:59.400Z,25.43
2022-12-24T15:16:29.154Z,34.77
2022-12-24T15:18:56.828Z,34.07
2022-12-24T15:21:30.232Z,35.77
2022-12-24T15:23:57.096Z,57.23
2022-12-24T15:26:23.803Z,40.33
2022-12-24T15:28:50.625Z,45.43
2022-12-24T15:31:21.293Z,36.87
2022-12-24T15:33:50.180Z,20.80
2022-12-24T15:36:18.285Z,25.20
2022-12-24T15:38:45.356Z,27.77
2022-12-24T15:41:16.384Z,24.63
2022-12-24T15:43:43.826Z,27.97
2022-12-24T15:46:10.731Z,45.60
2022-12-24T15:48:38.405Z,24.07
2022-12-24T15:51:07.047Z,22.33
2022-12-24T15:53:35.083Z,14.37
2022-12-24T15:56:03.073Z,21.73
2022-12-24T15:58:30.919Z,27.90
2022-12-24T16:01:17.862Z,19.80
2022-12-24T16:03:50.730Z,19.33
2022-12-24T16:06:17.586Z,22.07
2022-12-24T16:08:44.903Z,20.10
2022-12-24T16:14:02.201Z,74.80
2022-12-24T16:19:19.535Z,23.80
2022-12-24T16:24:30.676Z,19.43
2022-12-24T16:26:57.891Z,23.63
2022-12-24T16:29:24.741Z,27.53
2022-12-24T16:31:52.229Z,20.03
2022-12-24T16:34:19.030Z,32.70
2022-12-24T16:36:45.774Z,24.53
2022-12-24T16:39:26.134Z,22.50
2022-12-24T16:42:11.545Z,42.53
2022-12-24T16:44:38.448Z,24.83
2022-12-24T16:47:23.854Z,29.87
2022-12-24T16:49:50.650Z,25.67
2022-12-24T16:52:22.513Z,26.53
2022-12-24T16:54:49.691Z,34.87
2022-12-24T17:00:02.519Z,26.30
2022-12-24T17:02:29.506Z,27.07
2022-12-24T17:04:56.449Z,14.00
2022-12-24T17:07:23.188Z,21.03
2022-12-24T17:09:49.943Z,30.30
2022-12-24T17:12:16.967Z,26.10
2022-12-24T17:14:43.781Z,25.07
2022-12-24T17:17:19.340Z,21.93
2022-12-24T17:19:46.288Z,21.97
2022-12-24T17:22:13.158Z,20.70
2022-12-24T17:27:24.098Z,16.47
2022-12-24T17:29:50.783Z,16.40
2022-12-24T17:32:17.641Z,17.77
2022-12-24T17:34:44.546Z,14.70
2022-12-24T17:37:11.833Z,16.13
2022-12-24T17:39:38.461Z,20.70
2022-12-24T17:42:05.273Z,20.07
2022-12-24T17:44:32.084Z,19.07
2022-12-24T17:46:59.614Z,22.57
2022-12-24T17:49:26.350Z,11.87
2022-12-24T17:51:53.142Z,28.07
2022-12-24T17:54:19.717Z,23.47
2022-12-24T17:56:46.485Z,13.47
2022-12-24T17:59:13.595Z,10.17
2022-12-24T18:01:41.645Z,11.03
2022-12-24T18:04:08.602Z,9.23
2022-12-24T18:06:35.407Z,12.63
2022-12-24T18:09:02.081Z,10.17
2022-12-24T18:11:29.070Z,10.73
2022-12-24T18:13:56.802Z,11.17
2022-12-24T18:16:41.791Z,11.30
2022-12-24T18:19:10.820Z,11.70
2022-12-24T18:21:37.948Z,9.03
2022-12-24T18:24:05.572Z,11.60
2022-12-24T18:26:33.530Z,9.30
2022-12-24T18:29:01.003Z,11.40
2022-12-24T18:31:29.809Z,13.03
2022-12-24T18:34:00.709Z,13.23
2022-12-24T18:36:28.178Z,13.97
2022-12-24T18:38:55.121Z,15.67
2022-12-24T18:41:25.500Z,13.23
2022-12-24T18:43:52.267Z,15.63
2022-12-24T18:46:20.421Z,15.67
2022-12-24T18:48:47.774Z,20.57
2022-12-24T18:51:14.939Z,20.73
2022-12-24T18:53:41.877Z,23.60
2022-12-24T18:56:12.259Z,17.57
2022-12-24T18:58:41.234Z,27.77
2022-12-24T19:01:11.933Z,23.53
2022-12-24T19:03:38.798Z,32.50
2022-12-24T19:06:05.610Z,24.87
2022-12-24T19:09:02.352Z,31.33
2022-12-24T19:11:19.234Z,25.53
2022-12-24T19:13:47.337Z,43.37
2022-12-24T19:16:14.711Z,23.23
2022-12-24T19:18:41.844Z,21.67
2022-12-24T19:21:09.555Z,20.17
2022-12-24T19:23:36.215Z,20.93
2022-12-24T19:26:03.184Z,24.20
2022-12-24T19:28:30.394Z,24.97
2022-12-24T19:31:01.891Z,24.07
2022-12-24T19:33:28.993Z,25.33
2022-12-24T19:35:55.591Z,22.77
2022-12-24T19:38:22.376Z,22.03
2022-12-24T19:40:49.147Z,24.00
2022-12-24T19:43:15.884Z,27.17
2022-12-24T19:45:42.597Z,21.00
2022-12-24T19:48:09.836Z,26.50
2022-12-24T19:50:36.533Z,25.33
2022-12-24T19:53:03.248Z,25.77
2022-12-24T19:55:29.967Z,29.33
2022-12-24T19:57:56.603Z,25.97
2022-12-24T20:00:23.279Z,28.27
2022-12-24T20:02:50.194Z,26.93
2022-12-24T20:05:16.960Z,29.50
2022-12-24T20:07:43.790Z,30.90
2022-12-24T20:10:10.754Z,30.70
2022-12-24T20:12:37.612Z,27.50
2022-12-24T20:15:04.974Z,30.83
2022-12-24T20:17:31.748Z,27.97
2022-12-24T20:19:59.711Z,27.10
2022-12-24T20:22:26.410Z,23.50
2022-12-24T20:24:53.069Z,27.57
2022-12-24T20:27:19.799Z,36.00
2022-12-24T20:29:46.498Z,39.23
2022-12-24T20:32:15.172Z,33.50
2022-12-24T20:34:41.993Z,30.67
2022-12-24T20:37:08.824Z,35.37
2022-12-24T20:39:35.572Z,31.40
2022-12-24T20:42:20.967Z,32.33
2022-12-24T20:48:32.454Z,30.63
2022-12-24T20:50:59.280Z,32.80
2022-12-24T20:53:26.689Z,37.17
2022-12-24T20:55:53.640Z,34.13
2022-12-24T20:58:21.032Z,33.43
2022-12-24T21:00:49.188Z,29.00
2022-12-24T21:03:16.180Z,30.07
2022-12-24T21:05:43.172Z,35.73
2022-12-24T21:08:10.156Z,35.40
2022-12-24T21:10:37.121Z,38.33
2022-12-24T21:13:03.884Z,38.97
2022-12-24T21:15:34.484Z,34.63
2022-12-24T21:18:01.770Z,32.23
2022-12-24T21:20:31.515Z,35.07
2022-12-24T21:23:00.966Z,29.63
2022-12-24T21:25:28.239Z,35.17
2022-12-24T21:27:57.791Z,33.23
2022-12-24T21:30:24.720Z,35.30
2022-12-24T21:32:51.389Z,36.47
2022-12-24T21:35:18.121Z,35.90
2022-12-24T21:37:44.842Z,35.47
2022-12-24T21:40:11.976Z,34.60
2022-12-24T21:42:38.640Z,34.40
2022-12-24T21:45:06.334Z,37.00
2022-12-24T21:47:34.080Z,30.60
2022-12-24T21:50:20.499Z,28.37
2022-12-24T21:52:47.329Z,32.63
2022-12-24T21:55:14.047Z,29.00
2022-12-24T21:57:53.284Z,37.43
2022-12-24T22:00:24.342Z,33.63
2022-12-24T22:02:52.024Z,26.13
2022-12-24T22:05:22.303Z,28.27
2022-12-24T22:08:08.057Z,24.70
2022-12-24T22:10:53.682Z,26.40
2022-12-24T22:13:22.249Z,31.90
2022-12-24T22:15:50.128Z,25.77
2022-12-24T22:21:02.254Z,29.07
2022-12-24T22:26:13.799Z,30.23
2022-12-24T22:31:28.410Z,26.03
2022-12-24T22:36:39.559Z,26.73
2022-12-24T22:39:06.334Z,26.13
2022-12-24T22:41:33.085Z,19.57
2022-12-24T22:43:59.835Z,21.70
2022-12-24T22:46:26.658Z,27.20
2022-12-24T22:48:53.413Z,21.17
2022-12-24T22:51:21.733Z,23.43
2022-12-24T22:53:48.660Z,21.03
2022-12-24T22:56:16.405Z,20.17
2022-12-24T22:58:43.178Z,19.63
2022-12-24T23:01:10.083Z,18.07
2022-12-24T23:03:36.886Z,17.37
2022-12-24T23:06:04.789Z,20.13
2022-12-24T23:08:32.314Z,17.90
2022-12-24T23:11:05.943Z,15.10
2022-12-24T23:13:51.323Z,19.50
2022-12-24T23:16:18.631Z,19.10
2022-12-24T23:18:46.171Z,20.63
2022-12-24T23:21:13.261Z,19.60
2022-12-24T23:23:39.973Z,20.53
2022-12-24T23:26:10.711Z,19.77
2022-12-24T23:28:37.381Z,22.57
2022-12-24T23:31:04.088Z,21.33
2022-12-24T23:33:30.981Z,24.13
2022-12-24T23:35:57.617Z,24.87
2022-12-24T23:38:24.537Z,23.07
2022-12-24T23:40:51.411Z,24.30
2022-12-24T23:43:18.435Z,22.73
2022-12-24T23:45:48.780Z,21.37
2022-12-24T23:48:15.880Z,23.37
2022-12-24T23:50:43.087Z,24.23
2022-12-24T23:53:10.247Z,24.90
2022-12-24T23:55:37.023Z,22.57
2022-12-24T23:58:04.469Z,24.93
